createdAt,value
2018-02-20T00:00:55.989Z,31.00
2018-02-20T00:03:27.019Z,28.20
2018-02-20T00:05:58.011Z,28.23
2018-02-20T00:08:29.037Z,25.60
2018-02-20T00:11:00.007Z,27.98
2018-02-20T00:13:31.340Z,26.57
2018-02-20T00:16:02.515Z,28.05
2018-02-20T00:18:33.528Z,27.85
2018-02-20T00:21:04.536Z,28.80
2018-02-20T00:23:35.534Z,27.37
2018-02-20T00:26:06.523Z,28.23
2018-02-20T00:28:37.525Z,28.63
2018-02-20T00:31:08.496Z,29.02
2018-02-20T00:33:39.519Z,28.40
2018-02-20T00:36:10.569Z,29.92
2018-02-20T00:38:41.580Z,29.75
2018-02-20T00:41:12.736Z,29.73
2018-02-20T00:43:43.743Z,30.37
2018-02-20T00:46:14.749Z,28.85
2018-02-20T00:48:45.741Z,28.13
2018-02-20T00:51:16.717Z,29.07
2018-02-20T00:53:47.729Z,29.07
2018-02-20T00:56:18.712Z,30.00
2018-02-20T00:58:49.710Z,29.33
2018-02-20T01:01:20.718Z,29.53
2018-02-20T01:03:51.806Z,29.45
2018-02-20T01:06:22.854Z,29.02
2018-02-20T01:08:53.823Z,28.12
2018-02-20T01:11:24.885Z,29.30
2018-02-20T01:13:55.902Z,30.17
2018-02-20T01:16:26.890Z,28.10
2018-02-20T01:18:57.882Z,30.03
2018-02-20T01:21:28.823Z,29.70
2018-02-20T01:23:59.850Z,30.57
2018-02-20T01:26:30.856Z,29.05
2018-02-20T01:29:01.902Z,29.12
2018-02-20T01:31:32.910Z,29.95
2018-02-20T01:34:03.933Z,28.98
2018-02-20T01:36:34.931Z,29.40
2018-02-20T01:39:05.909Z,30.53
2018-02-20T01:41:36.964Z,30.17
2018-02-20T01:44:07.953Z,30.17
2018-02-20T01:46:38.992Z,29.57
2018-02-20T01:49:09.956Z,30.30
2018-02-20T01:51:40.990Z,30.50
2018-02-20T01:54:11.984Z,32.25
2018-02-20T01:56:43.025Z,31.20
2018-02-20T01:59:13.996Z,30.30
2018-02-20T02:01:45.019Z,30.77
2018-02-20T02:04:15.997Z,29.23
2018-02-20T02:06:47.054Z,30.17
2018-02-20T02:09:18.105Z,31.90
2018-02-20T02:11:49.107Z,30.60
2018-02-20T02:14:20.098Z,31.52
2018-02-20T02:16:51.147Z,32.97
2018-02-20T02:19:22.148Z,33.50
2018-02-20T02:21:53.176Z,32.07
2018-02-20T02:24:24.181Z,34.38
2018-02-20T02:26:55.190Z,31.20
2018-02-20T02:29:26.203Z,33.63
2018-02-20T02:31:57.192Z,34.03
2018-02-20T02:34:28.222Z,31.20
2018-02-20T02:36:59.220Z,34.17
2018-02-20T02:39:30.259Z,30.83
2018-02-20T02:42:01.213Z,31.87
2018-02-20T02:44:32.187Z,32.00
2018-02-20T02:47:03.201Z,30.77
2018-02-20T02:49:34.276Z,32.00
2018-02-20T02:52:05.224Z,33.58
2018-02-20T02:54:36.210Z,31.37
2018-02-20T02:57:07.209Z,30.90
2018-02-20T02:59:38.224Z,31.00
2018-02-20T03:02:09.229Z,31.00
2018-02-20T03:04:40.228Z,31.27
2018-02-20T03:07:11.275Z,31.63
2018-02-20T03:09:42.360Z,33.97
2018-02-20T03:12:13.349Z,34.28
2018-02-20T03:14:44.380Z,33.73
2018-02-20T03:17:15.377Z,32.60
2018-02-20T03:19:46.361Z,30.60
2018-02-20T03:22:17.325Z,33.83
2018-02-20T03:24:48.369Z,33.97
2018-02-20T03:27:19.350Z,32.45
2018-02-20T03:29:50.413Z,33.43
2018-02-20T03:32:21.395Z,32.33
2018-02-20T03:34:52.392Z,31.90
2018-02-20T03:37:23.434Z,32.83
2018-02-20T03:39:54.445Z,31.85
2018-02-20T03:42:25.429Z,33.22
2018-02-20T03:44:56.521Z,32.20
2018-02-20T03:47:27.572Z,31.45
2018-02-20T03:49:58.597Z,34.45
2018-02-20T03:52:29.602Z,33.20
2018-02-20T03:55:00.577Z,33.25
2018-02-20T03:57:31.589Z,33.83
2018-02-20T04:00:02.624Z,34.13
2018-02-20T04:02:33.657Z,31.58
2018-02-20T04:05:04.676Z,31.98
2018-02-20T04:07:35.714Z,34.95
2018-02-20T04:10:06.690Z,32.20
2018-02-20T04:12:37.728Z,32.90
2018-02-20T04:15:08.739Z,34.78
2018-02-20T04:17:39.750Z,29.92
2018-02-20T04:20:10.723Z,29.48
2018-02-20T04:22:41.713Z,27.90
2018-02-20T04:25:13.734Z,28.23
2018-02-20T04:27:44.698Z,27.42
2018-02-20T04:30:15.679Z,29.10
2018-02-20T04:32:46.632Z,28.83
2018-02-20T04:35:17.619Z,27.43
2018-02-20T04:37:48.651Z,26.37
2018-02-20T04:40:19.689Z,26.12
2018-02-20T04:42:50.665Z,25.25
2018-02-20T04:45:21.659Z,26.87
2018-02-20T04:47:52.643Z,27.13
2018-02-20T04:50:23.636Z,32.43
2018-02-20T04:52:54.603Z,33.60
2018-02-20T04:55:25.723Z,31.33
2018-02-20T04:57:56.711Z,33.45
2018-02-20T05:00:27.753Z,33.28
2018-02-20T05:02:58.761Z,34.90
2018-02-20T05:05:29.724Z,34.00
2018-02-20T05:08:00.701Z,33.57
2018-02-20T05:10:31.716Z,33.03
2018-02-20T05:13:02.746Z,33.83
2018-02-20T05:15:33.756Z,34.28
2018-02-20T05:18:04.733Z,35.08
2018-02-20T05:20:35.751Z,33.27
2018-02-20T05:23:06.699Z,34.90
2018-02-20T05:25:37.713Z,38.87
2018-02-20T05:28:08.708Z,32.05
2018-02-20T05:30:39.673Z,32.53
2018-02-20T05:33:12.023Z,34.47
2018-02-20T05:35:43.048Z,32.65
2018-02-20T05:38:14.105Z,33.97
2018-02-20T05:40:45.081Z,36.83
2018-02-20T05:43:16.102Z,35.67
2018-02-20T05:45:47.184Z,33.75
2018-02-20T05:48:18.181Z,31.50
2018-02-20T05:50:49.294Z,32.67
2018-02-20T05:53:20.296Z,34.35
2018-02-20T05:55:51.324Z,34.23
2018-02-20T05:58:22.331Z,35.90
2018-02-20T06:00:53.360Z,35.47
2018-02-20T06:03:24.392Z,34.35
2018-02-20T06:05:55.353Z,33.58
2018-02-20T06:08:26.361Z,35.03
2018-02-20T06:10:57.351Z,33.85
2018-02-20T06:13:28.467Z,34.87
2018-02-20T06:15:59.481Z,34.55
2018-02-20T06:18:30.490Z,34.13
2018-02-20T06:21:01.544Z,34.70
2018-02-20T06:23:32.566Z,36.20
2018-02-20T06:26:03.575Z,34.67
2018-02-20T06:28:34.554Z,33.43
2018-02-20T06:31:05.585Z,33.87
2018-02-20T06:33:36.595Z,32.80
2018-02-20T06:36:07.616Z,34.13
2018-02-20T06:38:38.634Z,34.35
2018-02-20T06:41:09.591Z,34.05
2018-02-20T06:43:40.629Z,33.93
2018-02-20T06:46:11.602Z,33.45
2018-02-20T06:48:42.641Z,35.93
2018-02-20T06:51:13.697Z,36.03
2018-02-20T06:53:44.691Z,36.27
2018-02-20T06:56:15.724Z,35.08
2018-02-20T06:58:46.737Z,34.53
2018-02-20T07:01:17.790Z,35.38
2018-02-20T07:03:48.776Z,34.75
2018-02-20T07:06:19.857Z,34.50
2018-02-20T07:08:50.855Z,35.80
2018-02-20T07:13:53.930Z,33.53
2018-02-20T07:16:24.932Z,34.88
2018-02-20T07:18:55.925Z,34.67
2018-02-20T07:21:26.953Z,33.73
2018-02-20T07:23:57.959Z,35.25
2018-02-20T07:26:29.019Z,34.13
2018-02-20T07:29:00.048Z,34.33
2018-02-20T07:31:31.332Z,34.20
2018-02-20T07:34:02.410Z,33.45
2018-02-20T07:36:33.468Z,32.28
2018-02-20T07:39:04.482Z,32.78
2018-02-20T07:41:35.544Z,32.10
2018-02-20T07:44:06.539Z,35.60
2018-02-20T07:46:37.549Z,32.83
2018-02-20T07:49:08.546Z,32.28
2018-02-20T07:51:39.587Z,33.30
2018-02-20T07:54:10.592Z,32.20
2018-02-20T07:56:41.595Z,33.43
2018-02-20T07:59:12.604Z,30.45
2018-02-20T08:01:43.645Z,32.33
2018-02-20T08:04:14.682Z,39.92
2018-02-20T08:06:45.771Z,32.95
2018-02-20T08:09:16.771Z,31.10
2018-02-20T08:11:47.807Z,31.95
2018-02-20T08:14:18.771Z,31.98
2018-02-20T08:16:49.811Z,33.20
2018-02-20T08:19:20.785Z,33.10
2018-02-20T08:21:51.836Z,31.40
2018-02-20T08:24:22.812Z,32.38
2018-02-20T08:26:53.870Z,32.27
2018-02-20T08:29:24.869Z,29.52
2018-02-20T08:31:55.884Z,32.40
2018-02-20T08:34:26.901Z,32.43
2018-02-20T08:36:57.904Z,32.60
2018-02-20T08:39:28.906Z,32.90
2018-02-20T08:41:59.910Z,34.83
2018-02-20T08:44:30.969Z,32.22
2018-02-20T08:47:02.004Z,34.50
2018-02-20T08:49:33.048Z,36.37
2018-02-20T08:52:04.049Z,35.77
2018-02-20T08:54:35.072Z,34.87
2018-02-20T08:57:06.090Z,35.03
2018-02-20T09:02:02.079Z,35.37
2018-02-20T09:04:33.116Z,35.43
2018-02-20T09:07:04.088Z,37.03
2018-02-20T09:09:35.138Z,39.43
2018-02-20T09:12:06.160Z,37.53
2018-02-20T09:14:37.218Z,35.43
2018-02-20T09:17:08.278Z,36.03
2018-02-20T09:19:39.269Z,35.40
2018-02-20T09:22:10.401Z,35.87
2018-02-20T09:24:41.359Z,36.00
2018-02-20T09:27:12.442Z,34.93
2018-02-20T09:29:43.424Z,34.07
2018-02-20T09:32:14.441Z,35.10
2018-02-20T09:34:45.488Z,34.50
2018-02-20T09:37:16.481Z,36.47
2018-02-20T09:39:47.445Z,36.00
2018-02-20T09:42:18.473Z,32.20
2018-02-20T09:44:49.521Z,35.73
2018-02-20T09:47:20.525Z,34.27
2018-02-20T09:49:51.535Z,31.70
2018-02-20T09:52:22.556Z,33.07
2018-02-20T09:54:53.569Z,32.00
2018-02-20T09:57:24.611Z,32.07
2018-02-20T09:59:55.620Z,31.47
2018-02-20T10:02:26.622Z,30.97
2018-02-20T10:04:57.602Z,31.03
2018-02-20T10:07:35.734Z,32.90
2018-02-20T10:10:06.728Z,31.73
2018-02-20T10:12:37.755Z,29.60
2018-02-20T10:15:08.732Z,28.67
2018-02-20T10:17:39.713Z,29.97
2018-02-20T10:20:10.751Z,31.07
2018-02-20T10:22:41.769Z,29.90
2018-02-20T10:25:12.759Z,30.37
2018-02-20T10:27:43.734Z,28.43
2018-02-20T10:30:14.754Z,32.33
2018-02-20T10:32:45.721Z,27.97
2018-02-20T10:35:16.852Z,26.97
2018-02-20T10:37:47.840Z,26.43
2018-02-20T10:40:18.850Z,23.93
2018-02-20T10:42:49.827Z,23.50
2018-02-20T10:45:20.870Z,24.30
2018-02-20T10:47:51.909Z,23.40
2018-02-20T10:50:22.971Z,23.93
2018-02-20T10:52:53.999Z,26.27
2018-02-20T10:55:24.986Z,24.77
2018-02-20T10:57:56.049Z,27.27
2018-02-20T11:00:27.023Z,25.77
2018-02-20T11:02:58.120Z,27.63
2018-02-20T11:05:29.124Z,26.50
2018-02-20T11:08:00.179Z,25.70
2018-02-20T11:10:31.161Z,26.63
2018-02-20T11:13:02.212Z,26.97
2018-02-20T11:15:33.228Z,28.10
2018-02-20T11:18:04.257Z,29.87
2018-02-20T11:20:35.263Z,29.83
2018-02-20T11:23:06.293Z,28.90
2018-02-20T11:25:37.294Z,30.37
2018-02-20T11:28:08.440Z,31.60
2018-02-20T11:30:39.476Z,30.70
2018-02-20T11:33:10.487Z,28.03
2018-02-20T11:35:41.538Z,28.80
2018-02-20T11:38:12.555Z,30.77
2018-02-20T11:40:43.576Z,30.17
2018-02-20T11:43:14.593Z,31.63
2018-02-20T11:45:45.694Z,30.40
2018-02-20T11:48:16.673Z,31.67
2018-02-20T11:50:47.705Z,30.87
2018-02-20T11:53:18.684Z,30.70
2018-02-20T11:55:49.716Z,30.17
2018-02-20T11:58:20.713Z,30.13
2018-02-20T12:00:51.772Z,30.07
2018-02-20T12:03:22.732Z,29.50
2018-02-20T12:05:53.776Z,29.77
2018-02-20T12:08:24.819Z,30.00
2018-02-20T12:10:55.838Z,31.03
2018-02-20T12:13:26.832Z,30.37
2018-02-20T12:15:57.913Z,30.20
2018-02-20T12:18:28.911Z,30.13
2018-02-20T12:20:59.994Z,29.13
2018-02-20T12:23:30.991Z,28.37
2018-02-20T12:26:01.996Z,29.27
2018-02-20T12:28:32.977Z,29.80
2018-02-20T12:31:04.042Z,27.43
2018-02-20T12:33:35.052Z,28.20
2018-02-20T12:36:06.065Z,20.70
2018-02-20T12:38:37.085Z,21.07
2018-02-20T12:41:08.060Z,23.90
2018-02-20T12:43:39.044Z,22.50
2018-02-20T12:46:10.067Z,22.27
2018-02-20T12:48:41.144Z,22.37
2018-02-20T12:51:12.136Z,19.17
2018-02-20T12:53:43.157Z,22.10
2018-02-20T12:56:14.189Z,20.27
2018-02-20T12:58:45.274Z,20.53
2018-02-20T13:01:16.302Z,23.30
2018-02-20T13:03:47.290Z,20.73
2018-02-20T13:06:18.346Z,22.87
2018-02-20T13:08:49.347Z,21.60
2018-02-20T13:11:20.349Z,23.13
2018-02-20T13:13:51.378Z,17.43
2018-02-20T13:16:22.382Z,19.83
2018-02-20T13:18:53.453Z,20.97
2018-02-20T13:21:24.478Z,19.77
2018-02-20T13:23:55.546Z,20.80
2018-02-20T13:26:26.537Z,19.53
2018-02-20T13:28:57.659Z,20.93
2018-02-20T13:31:28.650Z,22.13
2018-02-20T13:33:59.642Z,20.10
2018-02-20T13:36:30.660Z,20.83
2018-02-20T13:39:01.638Z,22.40
2018-02-20T13:41:32.700Z,18.87
2018-02-20T13:44:03.691Z,18.30
2018-02-20T13:46:34.732Z,19.77
2018-02-20T13:49:05.748Z,20.50
2018-02-20T13:51:36.786Z,18.27
2018-02-20T13:54:07.773Z,20.07
2018-02-20T13:56:38.830Z,16.57
2018-02-20T13:59:09.801Z,17.90
2018-02-20T14:01:40.842Z,18.33
2018-02-20T14:04:11.856Z,18.60
2018-02-20T14:06:42.814Z,20.70
2018-02-20T14:09:13.858Z,19.33
2018-02-20T14:11:44.809Z,19.80
2018-02-20T14:14:15.801Z,19.50
2018-02-20T14:16:46.803Z,20.93
2018-02-20T14:19:17.798Z,18.77
2018-02-20T14:21:48.867Z,19.17
2018-02-20T14:24:19.942Z,19.77
2018-02-20T14:26:50.972Z,18.97
2018-02-20T14:29:21.980Z,19.03
2018-02-20T14:31:52.987Z,18.97
2018-02-20T14:34:24.204Z,19.37
2018-02-20T14:36:55.173Z,19.20
2018-02-20T14:39:26.195Z,19.50
2018-02-20T14:41:57.184Z,19.60
2018-02-20T14:44:28.247Z,20.07
2018-02-20T14:46:59.269Z,20.30
2018-02-20T14:49:30.373Z,19.17
2018-02-20T14:52:01.324Z,19.73
2018-02-20T14:54:32.337Z,20.13
2018-02-20T14:57:03.320Z,20.97
2018-02-20T14:59:34.444Z,30.50
2018-02-20T15:02:05.446Z,19.50
2018-02-20T15:04:36.452Z,20.60
2018-02-20T15:07:07.485Z,19.47
2018-02-20T15:09:38.519Z,21.00
2018-02-20T15:12:09.525Z,26.53
2018-02-20T15:14:40.536Z,24.37
2018-02-20T15:17:11.501Z,25.17
2018-02-20T15:19:42.717Z,24.10
2018-02-20T15:22:13.748Z,27.97
2018-02-20T15:24:44.711Z,25.77
2018-02-20T15:27:15.735Z,25.20
2018-02-20T15:29:46.733Z,27.90
2018-02-20T15:32:17.745Z,26.33
2018-02-20T15:34:48.712Z,25.53
2018-02-20T15:37:19.743Z,26.47
2018-02-20T15:39:50.726Z,25.53
2018-02-20T15:42:21.739Z,24.90
2018-02-20T15:44:52.788Z,25.93
2018-02-20T15:47:23.774Z,26.20
2018-02-20T15:49:54.798Z,28.93
2018-02-20T15:52:25.808Z,29.30
2018-02-20T15:54:56.860Z,27.67
2018-02-20T15:57:27.834Z,30.13
2018-02-20T15:59:59.052Z,29.30
2018-02-20T16:02:30.047Z,29.33
2018-02-20T16:05:01.034Z,27.67
2018-02-20T16:07:32.092Z,29.17
2018-02-20T16:10:03.052Z,30.47
2018-02-20T16:12:34.150Z,30.50
2018-02-20T16:15:05.208Z,31.57
2018-02-20T16:17:36.250Z,29.23
2018-02-20T16:20:07.265Z,30.60
2018-02-20T16:22:38.320Z,28.07
2018-02-20T16:25:09.279Z,32.60
2018-02-20T16:27:40.350Z,31.67
2018-02-20T16:30:11.327Z,32.30
2018-02-20T16:32:42.312Z,32.23
2018-02-20T16:35:13.271Z,33.13
2018-02-20T16:37:44.358Z,32.90
2018-02-20T16:40:15.313Z,31.70
2018-02-20T16:42:46.350Z,35.43
2018-02-20T16:45:17.375Z,34.70
2018-02-20T16:47:48.351Z,34.53
2018-02-20T16:50:19.390Z,33.33
2018-02-20T16:52:50.381Z,33.03
2018-02-20T16:55:21.386Z,31.07
2018-02-20T16:57:52.366Z,31.73
2018-02-20T17:00:23.620Z,32.33
2018-02-20T17:02:54.641Z,32.33
2018-02-20T17:05:25.634Z,32.00
2018-02-20T17:07:56.681Z,32.97
2018-02-20T17:10:27.708Z,33.17
2018-02-20T17:12:58.685Z,32.47
2018-02-20T17:15:29.753Z,32.37
2018-02-20T17:18:00.749Z,33.30
2018-02-20T17:20:31.833Z,35.03
2018-02-20T17:23:02.818Z,32.77
2018-02-20T17:25:34.680Z,34.27
2018-02-20T17:28:05.705Z,32.67
2018-02-20T17:30:36.706Z,32.73
2018-02-20T17:33:07.739Z,33.30
2018-02-20T17:35:38.726Z,35.00
2018-02-20T17:38:10.045Z,34.30
2018-02-20T17:40:41.058Z,34.10
2018-02-20T17:43:12.052Z,35.10
2018-02-20T17:45:43.126Z,34.30
2018-02-20T17:48:14.156Z,32.40
2018-02-20T17:50:45.173Z,34.23
2018-02-20T17:53:16.196Z,33.83
2018-02-20T17:55:47.217Z,35.80
2018-02-20T17:58:18.183Z,34.57
2018-02-20T18:00:49.400Z,34.53
2018-02-20T18:03:20.346Z,33.92
2018-02-20T18:05:51.414Z,35.43
2018-02-20T18:08:22.403Z,35.53
2018-02-20T18:10:53.409Z,35.77
2018-02-20T18:13:24.459Z,36.87
2018-02-20T18:15:55.742Z,34.27
2018-02-20T18:18:26.795Z,34.83
2018-02-20T18:20:57.862Z,37.15
2018-02-20T18:23:28.902Z,37.17
2018-02-20T18:25:59.889Z,36.27
2018-02-20T18:28:30.897Z,38.23
2018-02-20T18:31:01.946Z,38.07
2018-02-20T18:33:33.031Z,35.80
2018-02-20T18:36:04.071Z,37.35
2018-02-20T18:38:35.084Z,38.60
2018-02-20T18:41:06.072Z,35.83
2018-02-20T18:43:37.094Z,35.57
2018-02-20T18:46:08.066Z,35.73
2018-02-20T18:48:39.114Z,34.37
2018-02-20T18:51:10.151Z,34.17
2018-02-20T18:53:41.170Z,36.30
2018-02-20T18:56:12.184Z,36.57
2018-02-20T18:58:43.148Z,37.07
2018-02-20T19:01:14.218Z,36.77
2018-02-20T19:03:45.211Z,38.53
2018-02-20T19:06:16.238Z,36.40
2018-02-20T19:08:47.306Z,37.63
2018-02-20T19:11:18.281Z,37.25
2018-02-20T19:13:49.345Z,36.50
2018-02-20T19:16:20.505Z,37.15
2018-02-20T19:18:51.455Z,36.37
2018-02-20T19:21:22.924Z,35.97
2018-02-20T19:23:53.947Z,36.03
2018-02-20T19:26:24.970Z,36.50
2018-02-20T19:28:55.990Z,37.97
2018-02-20T19:31:26.962Z,38.47
2018-02-20T19:33:58.006Z,35.63
2018-02-20T19:36:28.997Z,34.30
2018-02-20T19:39:00.053Z,33.67
2018-02-20T19:41:31.063Z,31.15
2018-02-20T19:44:02.103Z,35.13
2018-02-20T19:46:33.118Z,31.35
2018-02-20T19:49:04.092Z,31.30
2018-02-20T19:51:35.111Z,31.27
2018-02-20T19:54:06.149Z,32.23
2018-02-20T19:56:37.191Z,30.15
2018-02-20T19:59:08.206Z,32.22
2018-02-20T20:01:39.267Z,30.52
2018-02-20T20:04:10.293Z,32.10
2018-02-20T20:06:41.324Z,33.90
2018-02-20T20:09:12.360Z,31.92
2018-02-20T20:11:43.316Z,32.78
2018-02-20T20:14:14.324Z,32.60
2018-02-20T20:16:45.322Z,32.40
2018-02-20T20:19:16.386Z,33.00
2018-02-20T20:21:47.456Z,32.00
2018-02-20T20:24:18.413Z,33.42
2018-02-20T20:26:49.508Z,34.42
2018-02-20T20:29:20.513Z,32.42
2018-02-20T20:31:51.539Z,34.42
2018-02-20T20:34:22.522Z,33.70
2018-02-20T20:36:53.563Z,34.40
2018-02-20T20:39:24.548Z,34.13
2018-02-20T20:41:55.595Z,36.83
2018-02-20T20:44:26.592Z,33.00
2018-02-20T20:46:57.619Z,30.07
2018-02-20T20:49:28.580Z,32.33
2018-02-20T20:51:59.650Z,30.93
2018-02-20T20:54:30.673Z,30.62
2018-02-20T20:57:01.770Z,32.95
2018-02-20T20:59:32.796Z,31.42
2018-02-20T21:02:03.847Z,31.60
2018-02-20T21:04:34.903Z,30.60
2018-02-20T21:07:05.860Z,30.37
2018-02-20T21:09:36.841Z,29.37
2018-02-20T21:12:07.830Z,30.57
2018-02-20T21:14:38.846Z,31.07
2018-02-20T21:17:09.837Z,30.55
2018-02-20T21:19:40.882Z,29.83
2018-02-20T21:22:11.883Z,29.00
2018-02-20T21:24:42.961Z,28.80
2018-02-20T21:27:14.017Z,31.00
2018-02-20T21:29:45.065Z,28.30
2018-02-20T21:32:16.105Z,28.08
2018-02-20T21:34:47.785Z,26.52
2018-02-20T21:37:18.776Z,29.65
2018-02-20T21:39:49.816Z,28.60
2018-02-20T21:42:20.800Z,28.73
2018-02-20T21:44:51.774Z,30.20
2018-02-20T21:47:22.796Z,26.50
2018-02-20T21:49:53.781Z,27.13
2018-02-20T21:52:24.854Z,26.97
2018-02-20T21:54:55.963Z,27.15
2018-02-20T21:57:27.013Z,27.33
2018-02-20T21:59:57.980Z,28.80
2018-02-20T22:02:28.989Z,28.13
2018-02-20T22:04:59.988Z,27.50
2018-02-20T22:07:31.253Z,28.33
2018-02-20T22:10:02.255Z,27.17
2018-02-20T22:12:33.261Z,29.10
2018-02-20T22:15:05.407Z,27.98
2018-02-20T22:17:36.431Z,27.57
2018-02-20T22:20:07.453Z,28.20
2018-02-20T22:22:45.364Z,29.17
2018-02-20T22:25:16.358Z,28.67
2018-02-20T22:27:47.440Z,28.90
2018-02-20T22:30:18.467Z,30.42
2018-02-20T22:32:49.485Z,27.63
2018-02-20T22:35:20.475Z,29.80
2018-02-20T22:37:51.540Z,30.10
2018-02-20T22:40:22.518Z,28.07
2018-02-20T22:42:53.546Z,28.77
2018-02-20T22:45:31.622Z,29.07
2018-02-20T22:48:02.652Z,28.90
2018-02-20T22:50:33.648Z,29.17
2018-02-20T22:53:04.646Z,29.60
2018-02-20T22:55:35.688Z,30.77
2018-02-20T22:58:06.667Z,30.20
2018-02-20T23:00:37.713Z,29.10
2018-02-20T23:03:08.684Z,28.40
2018-02-20T23:05:39.664Z,30.60
2018-02-20T23:08:10.687Z,30.20
2018-02-20T23:10:41.736Z,31.23
2018-02-20T23:13:12.791Z,29.27
2018-02-20T23:15:43.757Z,30.57
2018-02-20T23:18:14.781Z,32.93
2018-02-20T23:20:45.828Z,31.33
2018-02-20T23:23:16.828Z,31.37
2018-02-20T23:25:47.847Z,30.47
2018-02-20T23:28:18.841Z,28.67
2018-02-20T23:30:49.861Z,29.33
2018-02-20T23:33:20.846Z,31.60
2018-02-20T23:35:51.820Z,31.87
2018-02-20T23:38:22.882Z,31.77
2018-02-20T23:40:53.866Z,32.55
2018-02-20T23:43:24.874Z,31.03
2018-02-20T23:45:55.836Z,30.20
2018-02-20T23:48:26.878Z,31.67
2018-02-20T23:51:04.010Z,32.00
2018-02-20T23:53:35.027Z,31.42
2018-02-20T23:56:05.983Z,31.12
2018-02-20T23:58:37.030Z,31.17
